Time;durP1;ratioP1;P1;durP2;ratioP2;P2;SDS_P1;SDS_P2;PMS_P1;PMS_P2;Temp;Humidity;BMP_temperature;BMP_pressure;BME280_temperature;BME280_humidity;BME280_pressure;Samples;Min_cycle;Max_cycle;Signal;HPM_P1;HPM_P2
2021/08/27 05:00:53;;;;;;;19.05;17.35;;;;;;;19.16;100.00;94403.78;6049235;23;21031;31
2021/08/27 05:03:19;;;;;;;18.67;17.08;;;;;;;18.85;100.00;94399.81;4906505;29;20428;-73
2021/08/27 05:05:45;;;;;;;18.20;16.58;;;;;;;18.98;100.00;94393.47;4892482;29;20111;-72
2021/08/27 05:08:10;;;;;;;18.73;17.00;;;;;;;18.54;100.00;94401.06;4911799;29;20076;-72
2021/08/27 05:10:36;;;;;;;20.02;18.13;;;;;;;18.42;100.00;94395.84;4914064;29;20047;-73
2021/08/27 05:13:01;;;;;;;22.23;20.13;;;;;;;18.37;100.00;94406.22;4908456;29;20075;-73
2021/08/27 05:15:26;;;;;;;21.60;19.48;;;;;;;18.42;100.00;94408.97;4914650;29;20416;-72
2021/08/27 05:17:52;;;;;;;21.05;19.02;;;;;;;18.30;100.00;94402.91;4911979;29;20039;-72
2021/08/27 05:20:17;;;;;;;18.52;16.67;;;;;;;18.41;100.00;94417.84;4896919;29;20432;-73
2021/08/27 05:22:43;;;;;;;20.52;18.55;;;;;;;18.27;100.00;94419.13;4896914;29;20032;-73
2021/08/27 05:25:09;;;;;;;15.45;14.25;;;;;;;18.68;100.00;94418.16;4896566;29;20043;-72
2021/08/27 05:27:36;;;;;;;16.10;14.70;;;;;;;18.85;100.00;94408.47;4896700;29;20036;-73
2021/08/27 05:30:05;;;;;;;16.10;14.65;;;;;;;18.77;100.00;94415.94;4896113;29;20421;-73
2021/08/27 05:32:31;;;;;;;19.95;17.95;;;;;;;18.44;100.00;94427.06;4896165;29;20437;-73
2021/08/27 05:34:56;;;;;;;14.85;13.82;;;;;;;18.67;100.00;94428.88;4913306;29;20260;-73
2021/08/27 05:37:22;;;;;;;15.55;14.35;;;;;;;18.79;100.00;94419.91;4896661;29;20035;-73
2021/08/27 05:39:47;;;;;;;18.25;16.55;;;;;;;18.95;100.00;94413.13;4896398;29;20032;-74
2021/08/27 05:42:13;;;;;;;12.80;11.70;;;;;;;19.39;100.00;94407.03;4895789;29;20024;-73
2021/08/27 05:44:38;;;;;;;12.20;11.30;;;;;;;20.76;99.50;94375.56;4877580;29;20451;-73
2021/08/27 05:47:04;;;;;;;12.75;11.55;;;;;;;21.44;96.44;94371.47;4892435;29;20024;-74
2021/08/27 05:49:29;;;;;;;12.77;11.77;;;;;;;22.17;90.48;94354.81;4877660;29;20389;-75
2021/08/27 05:51:55;;;;;;;12.63;11.75;;;;;;;20.15;96.33;94363.50;4876915;29;20495;-75
2021/08/27 05:54:20;;;;;;;10.88;9.95;;;;;;;19.92;100.00;94376.88;4895103;29;20036;-75
2021/08/27 05:56:46;;;;;;;9.40;8.57;;;;;;;19.40;100.00;94385.03;5269788;23;20604;-74
2021/08/27 05:59:11;;;;;;;9.70;8.85;;;;;;;19.34;100.00;94375.47;4950702;28;20038;-75
2021/08/27 06:01:37;;;;;;;10.35;9.55;;;;;;;19.51;100.00;94372.06;4933950;29;20117;-74
2021/08/27 06:04:03;;;;;;;12.65;11.70;;;;;;;20.16;100.00;94373.00;4930294;29;20035;-74
2021/08/27 06:06:28;;;;;;;10.05;9.30;;;;;;;19.49;100.00;94384.66;4941997;29;20031;-77
2021/08/27 06:08:54;;;;;;;10.95;10.25;;;;;;;19.43;100.00;94384.56;4945533;29;20035;-74
2021/08/27 06:11:19;;;;;;;10.27;9.40;;;;;;;19.75;100.00;94390.03;4899797;29;20039;-76
2021/08/27 06:13:45;;;;;;;9.55;8.85;;;;;;;20.57;100.00;94382.19;4930671;29;20129;-74
2021/08/27 06:16:10;;;;;;;8.50;7.90;;;;;;;20.65;97.72;94370.41;4915392;29;20474;-75
2021/08/27 06:18:36;;;;;;;9.70;9.00;;;;;;;21.05;96.51;94365.56;4932714;29;20023;-75
2021/08/27 06:21:01;;;;;;;10.25;9.38;;;;;;;21.43;95.43;94381.19;4915668;29;20023;-74
2021/08/27 06:23:27;;;;;;;10.02;9.25;;;;;;;21.46;96.03;94359.63;4917782;29;20023;-74
2021/08/27 06:25:52;;;;;;;8.75;7.95;;;;;;;20.75;97.98;94352.91;4948766;29;20738;-74
2021/08/27 06:28:18;;;;;;;8.07;7.43;;;;;;;20.78;96.80;94351.59;4917551;29;20034;-74
2021/08/27 06:30:43;;;;;;;8.38;7.68;;;;;;;20.56;99.02;94356.09;4933010;29;20023;-75
2021/08/27 06:33:09;;;;;;;9.15;8.55;;;;;;;20.48;99.40;94360.75;4932947;29;20393;-74
2021/08/27 06:35:34;;;;;;;11.23;10.27;;;;;;;20.01;100.00;94362.25;4933093;29;20497;-74
2021/08/27 06:40:44;;;;;;;11.55;10.60;;;;;;;20.00;100.00;94376.47;4940906;28;20029;-73
2021/08/27 06:43:10;;;;;;;12.68;11.68;;;;;;;19.96;100.00;94372.72;4896595;29;20034;-74
2021/08/27 06:45:35;;;;;;;12.82;11.93;;;;;;;20.03;100.00;94375.19;4915305;29;20027;-74
2021/08/27 06:48:00;;;;;;;11.65;10.65;;;;;;;20.21;100.00;94377.50;4882756;29;20030;-74
2021/08/27 06:50:27;;;;;;;11.50;10.40;;;;;;;20.28;100.00;94371.06;4945541;29;20031;-73
2021/08/27 06:52:54;;;;;;;11.60;10.70;;;;;;;20.33;100.00;94375.56;4914591;29;20125;-73
2021/08/27 06:55:19;;;;;;;10.73;9.90;;;;;;;20.61;100.00;94374.59;4931150;29;20024;-74
2021/08/27 06:57:45;;;;;;;10.40;9.70;;;;;;;21.23;97.62;94365.22;4932013;29;20051;-74
2021/08/27 07:00:11;;;;;;;10.40;9.40;;;;;;;22.48;93.33;94353.88;4930098;29;20030;-74
2021/08/27 07:02:36;;;;;;;9.75;9.02;;;;;;;22.52;92.02;94357.59;4931787;29;20024;-73
2021/08/27 07:05:02;;;;;;;8.93;8.13;;;;;;;24.15;86.37;94346.06;4929793;29;20039;-74
2021/08/27 07:07:27;;;;;;;8.55;7.82;;;;;;;24.16;80.99;94349.50;4948621;29;20031;-74
2021/08/27 07:09:53;;;;;;;8.60;8.00;;;;;;;23.84;82.35;94350.59;4914174;29;20553;-74
2021/08/27 07:12:18;;;;;;;8.20;7.53;;;;;;;23.65;83.91;94354.06;4930082;29;20460;-74
2021/08/27 07:14:45;;;;;;;8.55;7.75;;;;;;;24.13;82.89;94354.28;4915556;29;20035;-73
2021/08/27 07:17:11;;;;;;;8.23;7.63;;;;;;;24.40;78.99;94314.19;4930277;29;20055;-74
2021/08/27 07:19:36;;;;;;;8.05;7.43;;;;;;;25.38;75.49;94361.84;4915298;29;20656;-73
2021/08/27 07:22:02;;;;;;;8.43;7.72;;;;;;;26.03;75.69;94365.84;4946750;29;20031;-73
2021/08/27 07:24:27;;;;;;;9.32;8.40;;;;;;;26.30;74.20;94369.84;4945470;29;20035;-73
2021/08/27 07:26:53;;;;;;;10.25;9.45;;;;;;;26.01;73.28;94359.19;4929674;29;20042;-73
2021/08/27 07:29:18;;;;;;;11.80;10.80;;;;;;;24.72;78.45;94366.75;4914486;29;20031;-73
2021/08/27 07:31:44;;;;;;;13.40;12.40;;;;;;;23.68;78.68;94374.69;4929287;29;20468;-74
2021/08/27 07:34:09;;;;;;;15.18;13.98;;;;;;;24.00;77.87;94378.63;4928781;29;20027;-73
2021/08/27 07:36:35;;;;;;;17.77;16.17;;;;;;;23.30;79.40;94376.00;4947723;29;20027;-73
2021/08/27 07:39:00;;;;;;;15.63;14.20;;;;;;;23.02;83.77;94379.94;4928908;29;20019;-74
2021/08/27 07:41:26;;;;;;;16.23;14.65;;;;;;;22.89;84.29;94375.94;4930427;29;20023;-73
2021/08/27 07:43:51;;;;;;;15.77;14.43;;;;;;;24.35;80.40;94385.72;4913263;29;20182;-73
2021/08/27 07:46:16;;;;;;;17.60;15.90;;;;;;;22.95;79.50;94382.84;4947291;29;20409;-73
2021/08/27 07:48:42;;;;;;;19.55;17.83;;;;;;;23.14;80.31;94382.31;4914416;29;20042;-74
2021/08/27 07:51:07;;;;;;;19.83;17.73;;;;;;;24.12;81.30;94389.75;4929751;29;20032;-74
2021/08/27 07:53:33;;;;;;;17.17;15.73;;;;;;;23.59;79.87;94385.03;4933984;29;20023;-74
2021/08/27 07:55:58;;;;;;;19.85;17.95;;;;;;;22.47;83.95;94383.19;4930787;28;21454;-77
2021/08/27 07:58:24;;;;;;;17.80;16.23;;;;;;;22.63;83.38;94374.25;4916550;29;20047;-75
2021/08/27 08:00:49;;;;;;;17.50;15.82;;;;;;;23.18;81.59;94365.69;4949844;29;20393;-76
2021/08/27 08:03:15;;;;;;;17.40;15.90;;;;;;;23.14;81.35;94375.19;4918588;29;20023;-83
2021/08/27 08:05:40;;;;;;;18.83;16.92;;;;;;;22.89;80.89;94389.13;4932990;29;20031;-81
2021/08/27 08:08:06;;;;;;;15.23;13.93;;;;;;;23.23;80.96;94384.19;4934379;29;20031;-76
2021/08/27 08:10:31;;;;;;;16.90;15.35;;;;;;;22.43;81.35;94390.03;4928494;29;20047;-75
2021/08/27 08:12:56;;;;;;;16.02;14.77;;;;;;;22.68;80.40;94387.50;4947918;29;20042;-75
2021/08/27 08:15:26;;;;;;;16.60;14.95;;;;;;;23.89;78.61;94386.88;4942276;29;20873;-74
2021/08/27 08:17:53;;;;;;;16.10;14.60;;;;;;;23.75;76.16;94375.22;4917398;29;20102;-74
2021/08/27 08:20:19;;;;;;;14.70;13.50;;;;;;;24.18;75.27;94373.88;4932102;29;20027;-73
2021/08/27 08:22:44;;;;;;;13.43;12.23;;;;;;;24.21;74.57;94374.09;4901022;29;20817;-73
2021/08/27 08:25:10;;;;;;;15.93;13.93;;;;;;;23.45;77.60;94368.91;4930985;29;20499;-73
2021/08/27 08:27:35;;;;;;;14.35;13.05;;;;;;;24.41;74.90;94379.34;4949848;28;20465;-73
2021/08/27 08:30:01;;;;;;;14.85;13.43;;;;;;;23.29;75.64;94380.50;4917655;29;20046;-74
2021/08/27 08:32:27;;;;;;;13.57;12.30;;;;;;;24.19;73.34;94386.03;4932901;29;20031;-75
2021/08/27 08:34:53;;;;;;;14.27;12.95;;;;;;;23.92;74.13;94386.31;4950175;28;20424;-75
2021/08/27 08:37:18;;;;;;;14.77;13.57;;;;;;;24.34;71.52;94386.00;4933593;28;20058;-74
2021/08/27 08:39:44;;;;;;;14.15;13.00;;;;;;;24.51;69.92;94381.94;4949320;29;20034;-74
2021/08/27 08:42:09;;;;;;;13.20;11.85;;;;;;;24.45;72.35;94379.59;4951234;28;20066;-74
2021/08/27 08:44:35;;;;;;;13.23;12.18;;;;;;;23.78;74.61;94374.69;4948979;28;20054;-74
2021/08/27 08:47:03;;;;;;;14.60;13.25;;;;;;;23.92;72.38;94371.22;4918298;29;20046;-75
2021/08/27 08:49:29;;;;;;;13.87;12.73;;;;;;;23.01;74.32;94365.13;4933572;29;20106;-74
2021/08/27 08:51:55;;;;;;;13.75;11.43;;;;;;;24.34;72.43;94359.50;4917366;29;20279;-74
2021/08/27 08:54:21;;;;;;;12.40;11.25;;;;;;;24.34;72.32;94360.28;4918547;28;20586;-75
2021/08/27 08:56:46;;;;;;;13.23;11.98;;;;;;;24.74;72.46;94351.38;4932112;29;20097;-75
2021/08/27 08:59:12;;;;;;;12.00;11.05;;;;;;;24.92;69.01;94355.28;4933781;29;20090;-78
2021/08/27 09:01:37;;;;;;;11.82;10.88;;;;;;;24.69;72.28;94358.56;4916000;29;20042;-74
2021/08/27 09:04:03;;;;;;;11.45;10.30;;;;;;;25.68;66.92;94348.38;4933068;29;20086;-76
2021/08/27 09:06:29;;;;;;;12.27;11.15;;;;;;;24.17;68.45;94349.25;4932257;29;20031;-81
2021/08/27 09:08:59;;;;;;;11.40;10.50;;;;;;;25.18;66.63;94336.28;4933399;29;20400;-74
2021/08/27 09:11:25;;;;;;;10.95;9.88;;;;;;;25.63;65.52;94343.09;4933921;29;20023;-74
2021/08/27 09:13:52;;;;;;;10.93;9.95;;;;;;;26.19;65.13;94324.78;4897033;29;20478;-78
2021/08/27 09:16:18;;;;;;;11.80;9.80;;;;;;;25.21;64.44;94332.28;4913073;29;20050;-83
2021/08/27 09:18:46;;;;;;;10.40;9.35;;;;;;;25.58;65.77;94335.22;4917096;29;20042;-75
2021/08/27 09:21:32;;;;;;;10.25;9.45;;;;;;;26.58;63.57;94334.41;4933364;29;20541;-76
2021/08/27 09:24:27;;;;;;;10.10;9.13;;;;;;;27.58;61.16;94337.50;4949944;29;20114;-77
2021/08/27 09:26:57;;;;;;;9.52;8.52;;;;;;;26.06;60.90;94337.91;4947022;29;20051;-76
2021/08/27 09:29:38;;;;;;;10.20;8.57;;;;;;;26.27;59.95;94339.28;4913993;29;20069;-75
2021/08/27 09:32:23;;;;;;;9.57;8.73;;;;;;;26.63;59.53;94329.03;4931054;29;20023;-75
2021/08/27 09:34:59;;;;;;;10.00;8.93;;;;;;;26.58;59.97;94332.56;4950266;29;20027;-74
2021/08/27 09:37:34;;;;;;;10.02;9.02;;;;;;;25.99;62.31;94330.28;4901488;29;20632;-75
2021/08/27 09:40:01;;;;;;;10.73;8.80;;;;;;;25.66;61.64;94331.94;4915925;29;20078;-74
2021/08/27 09:42:26;;;;;;;10.27;9.38;;;;;;;26.12;60.71;94328.81;4917226;29;20066;-74
2021/08/27 09:44:52;;;;;;;11.70;8.82;;;;;;;26.32;62.03;94333.94;4916088;29;20039;-75
2021/08/27 09:47:17;;;;;;;10.18;9.18;;;;;;;26.78;61.04;94322.72;4915433;29;20326;-75
2021/08/27 09:49:43;;;;;;;10.25;8.57;;;;;;;26.26;59.43;94321.78;4930770;29;20050;-75
2021/08/27 09:52:09;;;;;;;9.68;8.50;;;;;;;26.76;62.36;94320.34;4932634;29;20082;-75
2021/08/27 09:54:40;;;;;;;9.90;9.00;;;;;;;26.52;64.24;94320.38;4917042;29;20489;-75
2021/08/27 09:57:07;;;;;;;10.35;9.40;;;;;;;26.48;63.87;94324.72;4921181;29;20048;-74
2021/08/27 09:59:32;;;;;;;10.48;9.50;;;;;;;26.29;65.94;94304.50;4910400;29;20040;-75
2021/08/27 10:01:58;;;;;;;9.50;8.57;;;;;;;26.07;64.21;94311.06;4909130;29;20032;-76
2021/08/27 10:04:23;;;;;;;10.55;9.65;;;;;;;25.94;65.84;94310.97;4911156;29;20036;-75
2021/08/27 10:06:49;;;;;;;13.38;10.20;;;;;;;25.49;65.10;94313.00;4891959;29;20028;-75
2021/08/27 10:09:14;;;;;;;11.77;10.68;;;;;;;25.85;65.96;94296.75;4908910;29;20031;-74
2021/08/27 10:11:40;;;;;;;10.50;9.60;;;;;;;26.27;63.70;94303.97;4909975;29;20032;-75
2021/08/27 10:14:05;;;;;;;11.05;10.15;;;;;;;26.00;64.16;94305.31;4894085;29;20111;-74
2021/08/27 10:16:31;;;;;;;10.77;9.88;;;;;;;25.59;64.29;94302.28;4894876;29;20024;-74
2021/08/27 10:18:59;;;;;;;11.13;10.18;;;;;;;25.24;66.95;94302.56;4910554;29;20047;-75
2021/08/27 10:21:24;;;;;;;13.07;10.00;;;;;;;25.28;66.03;94302.78;4895156;29;20024;-75
2021/08/27 10:23:50;;;;;;;10.95;9.98;;;;;;;25.59;65.84;94301.50;4878168;29;20072;-74
2021/08/27 10:26:23;;;;;;;9.95;9.15;;;;;;;25.84;63.69;94292.50;4909852;29;20028;-74
2021/08/27 10:28:49;;;;;;;11.60;9.80;;;;;;;26.57;63.18;94295.63;4894872;29;20028;-74
2021/08/27 10:31:14;;;;;;;10.55;9.68;;;;;;;26.85;61.15;94296.59;4909106;29;20028;-75
2021/08/27 10:33:43;;;;;;;10.50;9.43;;;;;;;26.94;59.81;94289.56;4910378;29;20031;-74
2021/08/27 10:36:20;;;;;;;9.10;8.30;;;;;;;26.34;60.26;94289.28;4909624;29;20028;-74
2021/08/27 10:38:47;;;;;;;9.32;8.50;;;;;;;26.61;59.09;94289.47;4911239;29;20494;-74
2021/08/27 10:41:17;;;;;;;10.38;9.50;;;;;;;27.42;58.30;94290.13;4892365;29;20040;-74
2021/08/27 10:43:55;;;;;;;9.98;9.00;;;;;;;27.27;59.96;94291.16;4894089;29;20537;-75
2021/08/27 10:46:21;;;;;;;11.05;9.18;;;;;;;26.48;59.36;94284.06;4908091;29;20032;-74
2021/08/27 10:48:51;;;;;;;9.85;8.95;;;;;;;27.23;61.51;94282.97;4905599;29;20115;-75
2021/08/27 10:51:29;;;;;;;9.32;8.35;;;;;;;26.81;60.94;94288.41;4909986;29;20028;-74
2021/08/27 10:53:55;;;;;;;16.70;14.98;;;;;;;27.03;59.58;94285.16;4908841;29;20099;-75
2021/08/27 10:56:50;;;;;;;18.15;16.35;;;;;;;27.21;60.81;94285.13;4901515;29;20048;-74
2021/08/27 10:59:20;;;;;;;12.18;10.82;;;;;;;27.30;58.95;94277.28;4909304;29;20577;-75
2021/08/27 11:01:47;;;;;;;13.13;11.98;;;;;;;27.49;58.81;94282.56;4876762;29;20586;-74
2021/08/27 11:04:23;;;;;;;9.82;8.90;;;;;;;27.34;58.49;94280.94;4909726;29;20059;-74
2021/08/27 11:07:04;;;;;;;9.45;8.65;;;;;;;27.10;57.19;94272.31;4907073;29;20035;-75
2021/08/27 11:09:32;;;;;;;9.90;8.73;;;;;;;26.89;58.51;94273.66;4910192;29;20043;-74
2021/08/27 11:12:16;;;;;;;8.93;8.13;;;;;;;27.71;57.59;94272.06;4908641;29;20073;-75
2021/08/27 11:14:45;;;;;;;9.18;8.10;;;;;;;26.21;57.48;94268.72;4910321;29;20509;-76
2021/08/27 11:17:11;;;;;;;7.93;6.95;;;;;;;25.81;57.33;94266.53;4910603;29;20036;-75
2021/08/27 11:19:44;;;;;;;7.85;7.18;;;;;;;26.61;58.11;94270.88;4907821;29;20070;-74
2021/08/27 11:22:13;;;;;;;8.85;8.10;;;;;;;27.95;56.61;94263.91;4910864;29;20040;-75
2021/08/27 11:24:42;;;;;;;10.88;9.77;;;;;;;27.85;55.33;94254.25;4909061;29;20437;-74
2021/08/27 11:27:15;;;;;;;8.98;6.70;;;;;;;27.41;56.23;94259.28;4910485;29;20031;-76
2021/08/27 11:29:42;;;;;;;9.07;8.10;;;;;;;27.18;60.33;94266.31;4882969;29;20099;-74
2021/08/27 11:32:09;;;;;;;8.43;7.57;;;;;;;27.83;56.09;94266.28;4909822;29;20047;-73
2021/08/27 11:35:05;;;;;;;8.82;7.93;;;;;;;28.09;57.35;94270.84;4912965;29;20075;-74
2021/08/27 11:37:36;;;;;;;9.07;8.23;;;;;;;28.43;55.92;94267.75;4906983;29;20140;-74
2021/08/27 11:40:06;;;;;;;7.55;6.85;;;;;;;28.05;53.57;94266.38;4882321;29;20072;-74
2021/08/27 11:42:31;;;;;;;11.68;7.80;;;;;;;28.06;53.50;94263.44;4912196;29;20446;-75
2021/08/27 11:45:07;;;;;;;7.85;7.05;;;;;;;28.34;51.89;94264.22;4895725;29;20040;-74
2021/08/27 11:47:45;;;;;;;11.25;8.43;;;;;;;28.91;53.81;94265.38;4894195;29;20112;-74
2021/08/27 11:50:27;;;;;;;8.20;7.07;;;;;;;28.64;51.82;94252.88;4906714;29;20099;-75
2021/08/27 11:52:56;;;;;;;9.95;7.13;;;;;;;28.11;53.23;94257.22;4911847;29;20489;-75
2021/08/27 11:55:21;;;;;;;7.32;6.72;;;;;;;27.87;52.23;94256.63;4912485;29;20020;-75
2021/08/27 11:57:54;;;;;;;7.35;6.68;;;;;;;27.72;53.33;94255.81;4896066;29;20044;-75
2021/08/27 12:00:38;;;;;;;9.40;7.30;;;;;;;27.91;56.76;94261.03;4913932;29;20071;-75
2021/08/27 12:03:04;;;;;;;7.95;7.20;;;;;;;27.00;55.33;94257.25;4910875;29;20032;-75
2021/08/27 12:05:30;;;;;;;8.10;7.10;;;;;;;26.83;55.41;94250.91;4879928;29;20020;-74
2021/08/27 12:07:59;;;;;;;8.38;7.68;;;;;;;26.77;56.90;94262.66;4894693;29;20032;-74
2021/08/27 12:10:26;;;;;;;7.53;6.93;;;;;;;26.89;56.29;94253.19;4911882;29;20031;-75
2021/08/27 12:12:52;;;;;;;9.40;7.10;;;;;;;27.01;56.18;94261.50;4912444;29;20110;-75
2021/08/27 12:15:22;;;;;;;8.32;7.55;;;;;;;27.26;57.43;94268.28;4911166;29;20043;-75
2021/08/27 12:18:00;;;;;;;8.50;7.75;;;;;;;27.34;58.44;94275.63;4912185;29;20043;-74
2021/08/27 12:20:31;;;;;;;8.05;7.15;;;;;;;28.07;54.66;94269.56;4911141;29;20080;-74
2021/08/27 12:23:09;;;;;;;8.02;7.05;;;;;;;28.10;52.11;94266.28;4912306;29;20493;-75
2021/08/27 12:25:45;;;;;;;7.90;7.20;;;;;;;28.62;51.17;94262.28;4912223;29;20039;-75
2021/08/27 12:28:14;;;;;;;7.90;7.22;;;;;;;27.73;54.54;94264.59;4896358;29;20042;-74
2021/08/27 12:30:48;;;;;;;8.45;7.78;;;;;;;27.35;55.98;94276.41;4912393;29;20076;-73
2021/08/27 12:33:14;;;;;;;7.15;6.65;;;;;;;27.14;54.10;94267.97;4911071;29;20063;-73
2021/08/27 12:35:39;;;;;;;8.20;7.45;;;;;;;27.06;55.58;94265.97;4896510;29;20115;-73
2021/08/27 12:38:05;;;;;;;8.25;7.18;;;;;;;26.86;54.40;94274.25;4910202;29;20028;-73
2021/08/27 12:40:31;;;;;;;8.35;7.70;;;;;;;26.80;55.40;94264.75;4911955;29;20040;-73
2021/08/27 12:43:07;;;;;;;8.55;7.80;;;;;;;26.98;56.35;94272.72;4911566;29;20031;-73
2021/08/27 12:45:41;;;;;;;7.47;6.72;;;;;;;27.13;55.81;94271.72;4895461;29;20103;-73
2021/08/27 12:48:07;;;;;;;8.60;7.63;;;;;;;27.32;58.05;94277.78;4911919;29;20099;-73
2021/08/27 12:50:43;;;;;;;8.40;7.70;;;;;;;27.05;55.57;94278.47;4910623;29;20031;-74
2021/08/27 12:53:08;;;;;;;9.05;7.18;;;;;;;27.49;53.44;94269.25;4912222;29;20110;-76
2021/08/27 12:55:33;;;;;;;8.45;7.75;;;;;;;27.50;52.76;94262.88;4911083;29;20447;-76
2021/08/27 12:57:59;;;;;;;7.72;6.90;;;;;;;28.34;52.54;94264.22;4910456;29;20052;-74
2021/08/27 13:00:26;;;;;;;7.25;6.75;;;;;;;27.86;50.84;94255.03;4908473;29;20114;-73
2021/08/27 13:03:05;;;;;;;7.47;6.60;;;;;;;28.01;53.97;94254.72;4910689;29;20032;-74
2021/08/27 13:05:38;;;;;;;8.43;7.73;;;;;;;28.22;53.47;94247.94;4911658;29;20120;-74
2021/08/27 13:08:15;;;;;;;7.82;7.22;;;;;;;27.88;52.63;94252.84;4908574;29;20091;-74
2021/08/27 13:11:07;;;;;;;11.18;6.88;;;;;;;27.79;50.73;94254.63;4908739;29;20024;-74
2021/08/27 13:13:39;;;;;;;10.20;8.18;;;;;;;27.52;54.56;94258.81;4911678;29;20036;-74
2021/08/27 13:16:15;;;;;;;8.55;7.10;;;;;;;27.61;53.78;94250.97;4909134;29;20439;-74
2021/08/27 13:18:51;;;;;;;7.43;6.82;;;;;;;28.13;50.30;94249.72;4905663;29;20268;-74
2021/08/27 13:21:19;;;;;;;7.97;7.28;;;;;;;28.15;50.65;94242.22;4908947;29;20371;-74
2021/08/27 13:23:45;;;;;;;7.95;7.25;;;;;;;28.21;49.44;94243.69;4910951;29;20486;-74
2021/08/27 13:26:20;;;;;;;7.10;6.57;;;;;;;28.09;47.94;94244.22;4894054;29;20036;-73
2021/08/27 13:28:46;;;;;;;7.00;6.18;;;;;;;28.09;50.03;94246.09;4908421;29;20067;-74
2021/08/27 13:31:12;;;;;;;8.25;7.45;;;;;;;28.12;52.63;94245.50;4909990;29;20544;-73
2021/08/27 13:33:37;;;;;;;8.40;7.55;;;;;;;27.71;53.01;94238.25;4910674;29;20032;-74
2021/08/27 13:36:03;;;;;;;8.10;7.45;;;;;;;27.30;51.09;94241.88;4911006;29;20028;-73
2021/08/27 13:38:28;;;;;;;8.23;7.43;;;;;;;27.46;54.69;94237.91;4908961;29;20036;-76
2021/08/27 13:40:55;;;;;;;7.03;6.53;;;;;;;27.93;50.10;94239.44;4909916;29;20497;-75
2021/08/27 13:43:20;;;;;;;8.00;6.43;;;;;;;28.16;49.33;94222.47;4910056;29;20455;-74
2021/08/27 13:45:46;;;;;;;7.72;7.03;;;;;;;27.86;47.23;94231.84;4909516;29;20075;-73
2021/08/27 13:48:12;;;;;;;8.05;6.55;;;;;;;28.20;47.47;94228.78;4892422;29;20468;-75
2021/08/27 13:50:38;;;;;;;7.30;6.70;;;;;;;28.30;47.96;94236.59;4908923;29;20024;-76
2021/08/27 13:53:04;;;;;;;8.80;7.35;;;;;;;27.75;50.29;94238.44;4911073;29;20528;-76
2021/08/27 13:55:29;;;;;;;8.60;7.60;;;;;;;27.96;47.67;94238.84;4909889;29;20056;-76
2021/08/27 13:57:55;;;;;;;6.93;6.43;;;;;;;28.37;48.16;94244.16;4909778;29;20048;-77
2021/08/27 14:00:21;;;;;;;7.85;7.10;;;;;;;28.55;48.28;94238.69;4893106;29;20040;-76
2021/08/27 14:02:47;;;;;;;7.00;6.50;;;;;;;28.36;46.69;94238.06;4876271;29;20103;-76
2021/08/27 14:05:13;;;;;;;7.10;6.55;;;;;;;28.60;47.14;94241.25;4890201;29;20391;-76
2021/08/27 14:07:38;;;;;;;7.55;6.95;;;;;;;28.34;45.58;94261.56;4892987;29;20016;-75
2021/08/27 14:10:05;;;;;;;7.50;6.90;;;;;;;28.13;46.69;94242.50;4911364;29;20123;-75
2021/08/27 14:12:31;;;;;;;7.97;7.05;;;;;;;28.13;47.12;94247.06;4892610;29;20032;-74
2021/08/27 14:14:56;;;;;;;7.43;6.72;;;;;;;28.09;47.16;94244.22;4910126;29;20020;-75
2021/08/27 14:17:22;;;;;;;7.25;6.75;;;;;;;27.84;46.94;94242.00;4893459;29;20533;-75
2021/08/27 14:19:47;;;;;;;8.18;6.82;;;;;;;28.40;47.28;94246.25;4907304;29;20036;-76
2021/08/27 14:22:13;;;;;;;8.38;7.60;;;;;;;28.31;47.37;94245.38;4910861;29;20035;-76
2021/08/27 14:24:38;;;;;;;8.75;7.13;;;;;;;28.15;47.72;94247.56;4910725;29;20024;-75
2021/08/27 14:27:04;;;;;;;8.30;7.18;;;;;;;28.03;47.78;94250.69;4910780;29;20024;-75
2021/08/27 14:29:30;;;;;;;7.53;6.28;;;;;;;28.02;46.29;94245.66;4906351;29;20047;-75
2021/08/27 14:31:56;;;;;;;6.63;6.03;;;;;;;28.32;46.76;94242.38;4908328;29;20055;-74
2021/08/27 14:34:22;;;;;;;7.80;6.85;;;;;;;28.02;46.99;94249.13;4891723;29;20112;-74
2021/08/27 14:36:49;;;;;;;7.07;6.53;;;;;;;28.17;48.86;94245.38;4893089;29;20038;-77
2021/08/27 14:39:15;;;;;;;6.93;6.32;;;;;;;28.07;47.80;94242.91;4877512;29;20541;-73
2021/08/27 14:41:41;;;;;;;7.15;6.38;;;;;;;28.04;49.45;94248.81;4911453;29;20038;-75
2021/08/27 14:44:06;;;;;;;7.93;7.10;;;;;;;28.03;48.44;94249.91;4892792;29;20036;-74
2021/08/27 14:46:32;;;;;;;8.30;6.63;;;;;;;27.86;47.37;94247.84;4908754;29;20028;-74
2021/08/27 14:48:58;;;;;;;7.70;6.80;;;;;;;27.88;47.31;94242.19;4910459;29;20082;-74
2021/08/27 14:51:26;;;;;;;8.30;6.65;;;;;;;28.02;47.61;94243.00;4892585;29;20028;-75
2021/08/27 14:53:52;;;;;;;7.93;6.70;;;;;;;27.68;47.19;94238.84;4907461;29;20078;-75
2021/08/27 14:56:18;;;;;;;7.05;6.25;;;;;;;27.71;46.60;94230.25;4908084;29;20036;-74
2021/08/27 14:58:44;;;;;;;6.72;6.13;;;;;;;27.54;46.33;94232.72;4919918;29;20048;-75
2021/08/27 15:01:09;;;;;;;8.43;6.47;;;;;;;27.74;48.81;94231.56;4907990;29;20067;-74
2021/08/27 15:03:35;;;;;;;7.18;6.57;;;;;;;27.74;48.57;94227.00;4920237;29;20070;-74
2021/08/27 15:06:00;;;;;;;9.40;6.55;;;;;;;27.55;47.74;94226.31;4914497;29;20031;-74
2021/08/27 15:08:26;;;;;;;6.68;6.07;;;;;;;27.58;47.31;94220.38;4915344;29;20031;-75
2021/08/27 15:10:52;;;;;;;7.15;6.30;;;;;;;27.52;47.99;94218.91;4892411;29;20366;-73
2021/08/27 15:13:18;;;;;;;6.72;6.13;;;;;;;27.66;47.95;94217.06;4914792;29;20035;-73
2021/08/27 15:15:44;;;;;;;7.75;6.65;;;;;;;27.68;48.74;94214.88;4927778;29;20164;-74
2021/08/27 15:18:09;;;;;;;6.43;5.93;;;;;;;27.77;48.24;94216.88;4915292;29;20129;-73
2021/08/27 15:20:35;;;;;;;6.38;5.85;;;;;;;27.71;46.88;94219.59;4909572;29;20032;-73
2021/08/27 15:23:00;;;;;;;7.60;6.90;;;;;;;27.82;46.99;94222.09;4908695;29;20474;-73
2021/08/27 15:25:29;;;;;;;7.10;6.40;;;;;;;27.62;47.33;94224.03;4915746;29;20039;-73
2021/08/27 15:27:55;;;;;;;6.68;6.15;;;;;;;27.50;47.50;94221.09;4884887;29;20040;-73
2021/08/27 15:30:21;;;;;;;7.32;6.43;;;;;;;27.61;47.24;94222.47;4915158;29;20153;-73
2021/08/27 15:32:48;;;;;;;6.60;6.00;;;;;;;27.52;46.17;94228.75;4922370;29;20031;-73
2021/08/27 15:35:13;;;;;;;7.05;6.40;;;;;;;27.56;47.03;94219.91;4910270;29;20070;-73
2021/08/27 15:37:39;;;;;;;7.18;6.45;;;;;;;27.60;47.31;94228.88;4892206;29;20499;-74
2021/08/27 15:40:05;;;;;;;9.88;7.20;;;;;;;27.48;48.72;94225.91;4902350;29;20027;-74
2021/08/27 15:42:30;;;;;;;6.88;6.32;;;;;;;27.35;49.88;94218.66;4927651;29;20114;-73
2021/08/27 15:44:56;;;;;;;8.18;6.55;;;;;;;27.21;50.42;94221.28;4922777;29;20040;-73
2021/08/27 15:47:21;;;;;;;7.13;6.50;;;;;;;27.17;50.67;94220.28;4910952;29;20039;-72
2021/08/27 15:49:47;;;;;;;7.80;6.63;;;;;;;27.20;49.71;94230.34;4893469;29;20044;-73
2021/08/27 15:52:13;;;;;;;6.82;6.00;;;;;;;27.18;48.12;94221.09;4912632;29;20418;-72
2021/08/27 15:54:39;;;;;;;8.00;6.43;;;;;;;27.12;49.72;94222.25;4927681;29;20039;-73
2021/08/27 15:57:05;;;;;;;6.20;5.68;;;;;;;27.12;47.34;94227.56;4911496;29;20072;-73
2021/08/27 15:59:30;;;;;;;7.63;6.47;;;;;;;27.03;47.89;94226.66;4904431;29;20499;-72
2021/08/27 16:01:56;;;;;;;6.65;6.03;;;;;;;27.04;48.30;94228.22;4897308;29;20118;-72
2021/08/27 16:04:21;;;;;;;7.35;6.53;;;;;;;26.94;48.74;94228.41;4927987;29;20032;-73
2021/08/27 16:06:46;;;;;;;6.95;6.32;;;;;;;26.90;48.66;94228.19;4929405;29;20028;-72
2021/08/27 16:09:12;;;;;;;7.53;6.60;;;;;;;26.85;48.35;94225.59;4914472;29;20523;-73
2021/08/27 16:11:37;;;;;;;10.40;6.88;;;;;;;26.68;49.98;94223.44;4911686;29;20044;-74
2021/08/27 16:14:06;;;;;;;8.60;6.45;;;;;;;26.54;49.60;94219.94;4930899;29;20105;-73
2021/08/27 16:16:32;;;;;;;7.22;6.60;;;;;;;26.61;50.05;94227.56;4898469;29;20421;-74
2021/08/27 16:18:58;;;;;;;9.43;6.95;;;;;;;26.06;62.46;94227.19;4900722;29;20063;-74
2021/08/27 16:21:23;;;;;;;11.50;8.88;;;;;;;25.55;68.57;94237.59;4896211;29;20482;-73
2021/08/27 16:23:49;;;;;;;9.05;7.93;;;;;;;25.52;65.55;94229.41;4912244;29;20032;-73
2021/08/27 16:26:14;;;;;;;8.43;7.70;;;;;;;25.42;65.71;94230.28;4895612;29;20036;-73
2021/08/27 16:28:40;;;;;;;8.85;8.02;;;;;;;25.25;68.21;94231.75;4880462;29;20103;-73
2021/08/27 16:31:06;;;;;;;9.70;8.80;;;;;;;24.95;72.50;94235.44;4895624;29;20510;-73